Aeroporto :
LOGIN :

Iscrizione | Disclaimer

   EN    FR    IT 

 










Sommario :    VFR   VFR Marginale   IFR   IFR Intensivo   IFR Molto Intensivo
Visibilità : 
Base nubi : 
>= 8 km
>= 3000ft
5 / 8 km
1000 / 3000 ft
1500m / 5 km
500 / 1000 ft
800 / 1500m
200 / 500 ft
< 800m
< 200 ft
Simboli :   Temporali  Nebbia  Neve Forte  Precipitazioni Forti  Vento > 20 kt
SIGMETs :   Varie  Temporali  Ghiacco  Turbolenza  Onda orograficha  Ceneri Vulcaniche






- Altitudine del aeroporto : 479 ft
- Codice IATA : DOL


LFRG - Deauville

ULTIMO METAR :
  • 291400Z AUTO 25019G32KT 220V280 9999 FEW043 SCT100 BKN120 09/01 Q0994 TEMPO 24030G50KT 2000 TSRAGS BKN020CB

METARs OBSOLETI :
  • 291330Z AUTO 25018G31KT 220V280 9999 FEW032 08/02 Q0994 TEMPO 24030G50KT 2000 TSRAGS BKN020CB
  • 291300Z AUTO 23017KT 210V270 9999 FEW029 SCT036 07/03 Q0994 TEMPO 24030G50KT 2000 TSRAGS BKN020CB
  • 291230Z AUTO 25019G32KT 220V280 9999 FEW027/// SCT036/// BKN043/// ///CB 08/01 Q0993 TEMPO 24030G50KT 2000 TSRAGS
  • 291200Z AUTO 25019KT 9999 BKN038/// BKN049/// BKN064/// ///CB 08/03 Q0993 TEMPO 24030G50KT 2000 TSRAGS
  • 291130Z AUTO 25018KT 9999 FEW021/// BKN029/// BKN044/// ///TCU 06/03 Q0992 TEMPO 24030G50KT 2000 TSRAGS BKN020CB
  • 291100Z AUTO 24014KT 210V270 9999 BKN017 BKN027 OVC150 08/05 Q0991 TEMPO 24030G50KT 3000 TSRAGS BKN020CB

TAF TAF LFRG
Valido dal 29 a 12 ore il 29 a 21 ore UTC


291100Z 2912/2921 24020G30KT 9999 BKN030
TEMPO 2912/2918 25030G40KT 4000 SHRAGS BKN020CB
PROB30
TEMPO 2912/2916 24030G50KT 2000 TSRAGS
TEMPO 2918/2921 4000 SHRA BKN020TCU
ATIS : +33 2 31 65 65 36



MetMap, La meteo Aeronautica in un colpo d'occhio ! - Copyright ORBIFLY Dicembre 2007 - Disclaimer

ORBIFLY MET'MAP TEAM :

Programmazione e sviluppo : Alexandra Zaïnal
Concezione : Baudouin d'Aumeries
Aiuto per la programmazione : Marc-Olivier Méhu
Supporto tecnico e logistico : Manuel Goepfert
Aiuto per la traduzione : Arnaldo La Scala

Contatto : metmap@orbifly.com




FONTI E CREDITI :

   NOAA